createdAt,value
2017-08-08T00:00:39.921Z,98236.23
2017-08-08T00:03:07.372Z,98240.09
2017-08-08T00:05:35.025Z,98238.13
2017-08-08T00:08:02.476Z,98229.69
2017-08-08T00:10:29.919Z,98226.53
2017-08-08T00:12:57.710Z,98221.55
2017-08-08T00:15:25.159Z,98223.84
2017-08-08T00:17:52.609Z,98217.22
2017-08-08T00:20:20.089Z,98221.19
2017-08-08T00:22:47.561Z,98231.55
2017-08-08T00:25:15.025Z,98219.41
2017-08-08T00:27:42.473Z,98214.33
2017-08-08T00:30:09.949Z,98218.23
2017-08-08T00:32:37.435Z,98215.73
2017-08-08T00:35:04.913Z,98210.84
2017-08-08T00:37:33.292Z,98215.70
2017-08-08T00:40:00.801Z,98211.50
2017-08-08T00:42:28.841Z,98215.84
2017-08-08T00:44:56.304Z,98206.25
2017-08-08T00:47:24.789Z,98216.11
2017-08-08T00:49:52.249Z,98216.33
2017-08-08T00:52:19.701Z,98213.91
2017-08-08T00:54:47.142Z,98213.97
2017-08-08T00:57:14.608Z,98213.06
2017-08-08T00:59:42.060Z,98205.58
2017-08-08T01:02:09.520Z,98199.88
2017-08-08T01:04:36.966Z,98197.11
2017-08-08T01:07:04.438Z,98202.31
2017-08-08T01:09:31.901Z,98194.53
2017-08-08T01:11:59.344Z,98192.30
2017-08-08T01:14:26.817Z,98195.50
2017-08-08T01:16:54.263Z,98194.80
2017-08-08T01:19:21.741Z,98191.83
2017-08-08T01:21:49.199Z,98194.77
2017-08-08T01:24:16.632Z,98190.72
2017-08-08T01:26:44.104Z,98188.51
2017-08-08T01:29:11.552Z,98185.88
2017-08-08T01:31:39.012Z,98183.48
2017-08-08T01:34:06.466Z,98175.17
2017-08-08T01:36:33.917Z,98169.28
2017-08-08T01:39:01.379Z,98174.25
2017-08-08T01:41:28.825Z,98174.23
2017-08-08T01:43:56.376Z,98173.16
2017-08-08T01:46:23.847Z,98164.62
2017-08-08T01:48:51.289Z,98171.45
2017-08-08T01:51:18.757Z,98170.39
2017-08-08T01:53:46.208Z,98176.20
2017-08-08T01:56:13.673Z,98173.27
2017-08-08T01:58:41.120Z,98169.28
2017-08-08T02:01:08.595Z,98174.09
2017-08-08T02:03:36.045Z,98171.22
2017-08-08T02:06:03.537Z,98168.97
2017-08-08T02:08:30.980Z,98163.60
2017-08-08T02:10:58.425Z,98165.75
2017-08-08T02:13:26.004Z,98162.59
2017-08-08T02:15:53.449Z,98149.69
2017-08-08T02:18:20.893Z,98145.44
2017-08-08T02:20:48.357Z,98140.14
2017-08-08T02:23:15.802Z,98146.20
2017-08-08T02:25:43.624Z,98145.00
2017-08-08T02:28:11.073Z,98140.81
2017-08-08T02:30:38.522Z,98135.42
2017-08-08T02:33:06.012Z,98129.23
2017-08-08T02:35:33.466Z,98127.42
2017-08-08T02:38:00.930Z,98125.42
2017-08-08T02:40:28.428Z,98130.66
2017-08-08T02:42:55.898Z,98125.96
2017-08-08T02:45:23.349Z,98124.16
2017-08-08T02:47:50.997Z,98126.50
2017-08-08T02:50:18.452Z,98127.38
2017-08-08T02:52:45.893Z,98129.28
2017-08-08T02:55:13.361Z,98117.11
2017-08-08T02:57:41.208Z,98120.28
2017-08-08T03:00:08.653Z,98124.64
2017-08-08T03:02:36.101Z,98122.56
2017-08-08T03:05:03.575Z,98123.11
2017-08-08T03:07:31.044Z,98116.72
2017-08-08T03:09:58.512Z,98116.76
2017-08-08T03:12:25.953Z,98113.13
2017-08-08T03:14:53.425Z,98115.54
2017-08-08T03:17:20.897Z,98106.00
2017-08-08T03:19:48.333Z,98119.05
2017-08-08T03:22:15.795Z,98118.91
2017-08-08T03:24:43.244Z,98124.16
2017-08-08T03:27:10.716Z,98120.78
2017-08-08T03:29:38.166Z,98118.72
2017-08-08T03:32:05.644Z,98117.27
2017-08-08T03:34:33.097Z,98118.28
2017-08-08T03:37:00.569Z,98117.96
2017-08-08T03:39:28.043Z,98118.44
2017-08-08T03:41:55.497Z,98115.89
2017-08-08T03:44:22.960Z,98112.70
2017-08-08T03:46:50.441Z,98107.00
2017-08-08T03:49:17.885Z,98109.45
2017-08-08T03:51:45.344Z,98112.22
2017-08-08T03:54:12.846Z,98111.82
2017-08-08T03:56:40.297Z,98114.52
2017-08-08T03:59:07.773Z,98111.19
2017-08-08T04:01:35.257Z,98110.28
2017-08-08T04:04:02.705Z,98113.39
2017-08-08T04:06:30.144Z,98116.13
2017-08-08T04:08:57.622Z,98120.78
2017-08-08T04:11:25.068Z,98109.78
2017-08-08T04:13:52.569Z,98112.16
2017-08-08T04:16:20.060Z,98114.59
2017-08-08T04:18:47.523Z,98110.34
2017-08-08T04:21:14.999Z,98103.63
2017-08-08T04:23:42.444Z,98104.41
2017-08-08T04:26:09.914Z,98105.88
2017-08-08T04:28:37.357Z,98104.98
2017-08-08T04:31:04.833Z,98112.28
2017-08-08T04:33:32.300Z,98116.00
2017-08-08T04:35:59.752Z,98105.80
2017-08-08T04:38:27.197Z,98104.40
2017-08-08T04:40:54.673Z,98104.61
2017-08-08T04:43:22.167Z,98104.41
2017-08-08T04:45:49.609Z,98106.99
2017-08-08T04:48:17.061Z,98099.66
2017-08-08T04:50:44.537Z,98099.25
2017-08-08T04:53:12.022Z,98092.44
2017-08-08T04:55:39.477Z,98096.17
2017-08-08T04:58:06.926Z,98090.56
2017-08-08T05:00:34.392Z,98089.62
2017-08-08T05:03:01.836Z,98093.61
2017-08-08T05:05:29.446Z,98091.08
2017-08-08T05:07:56.889Z,98090.56
2017-08-08T05:10:24.333Z,98090.34
2017-08-08T05:12:51.798Z,98088.11
2017-08-08T05:15:19.264Z,98084.59
2017-08-08T05:17:46.709Z,98077.73
2017-08-08T05:20:14.168Z,98080.64
2017-08-08T05:22:41.617Z,98070.61
2017-08-08T05:25:09.085Z,98067.84
2017-08-08T05:27:36.545Z,98062.00
2017-08-08T05:30:04.001Z,98064.64
2017-08-08T05:32:31.462Z,98059.22
2017-08-08T05:34:58.932Z,98049.78
2017-08-08T05:37:26.409Z,98046.34
2017-08-08T05:39:53.854Z,98046.88
2017-08-08T05:42:21.316Z,98049.91
2017-08-08T05:44:48.768Z,98054.22
2017-08-08T05:47:16.255Z,98051.25
2017-08-08T05:49:43.715Z,98057.30
2017-08-08T05:52:11.162Z,98060.69
2017-08-08T05:54:38.637Z,98062.52
2017-08-08T05:57:06.084Z,98066.33
2017-08-08T05:59:33.559Z,98062.44
2017-08-08T06:02:01.009Z,98061.95
2017-08-08T06:04:28.773Z,98061.34
2017-08-08T06:06:56.223Z,98067.47
2017-08-08T06:09:23.679Z,98067.38
2017-08-08T06:11:51.143Z,98064.66
2017-08-08T06:14:18.619Z,98062.27
2017-08-08T06:16:46.060Z,98058.73
2017-08-08T06:19:13.513Z,98055.34
2017-08-08T06:21:40.981Z,98057.80
2017-08-08T06:24:08.428Z,98056.23
2017-08-08T06:26:35.888Z,98048.19
2017-08-08T06:29:03.330Z,98051.62
2017-08-08T06:31:30.777Z,98048.66
2017-08-08T06:33:58.238Z,98045.44
2017-08-08T06:36:26.264Z,98050.31
2017-08-08T06:38:53.739Z,98046.12
2017-08-08T06:41:21.180Z,98045.72
2017-08-08T06:43:48.630Z,98045.14
2017-08-08T06:46:16.100Z,98033.25
2017-08-08T06:48:43.551Z,98035.98
2017-08-08T06:51:11.018Z,98035.97
2017-08-08T06:53:38.477Z,98031.98
2017-08-08T06:56:05.938Z,98032.73
2017-08-08T06:58:33.406Z,98027.80
2017-08-08T07:01:00.857Z,98029.19
2017-08-08T07:03:28.301Z,98028.59
2017-08-08T07:05:55.769Z,98028.33
2017-08-08T07:08:23.224Z,98025.88
2017-08-08T07:10:50.682Z,98027.98
2017-08-08T07:13:18.177Z,98026.28
2017-08-08T07:15:45.620Z,98026.82
2017-08-08T07:18:13.066Z,98023.39
2017-08-08T07:20:40.556Z,98023.45
2017-08-08T07:23:08.032Z,98022.98
2017-08-08T07:25:35.474Z,98027.14
2017-08-08T07:28:02.959Z,98035.14
2017-08-08T07:30:30.430Z,98034.39
2017-08-08T07:32:57.892Z,98035.88
2017-08-08T07:35:25.383Z,98038.17
2017-08-08T07:37:52.829Z,98040.44
2017-08-08T07:40:20.282Z,98050.31
2017-08-08T07:42:47.747Z,98046.56
2017-08-08T07:45:15.190Z,98042.47
2017-08-08T07:47:42.629Z,98041.61
2017-08-08T07:50:10.110Z,98040.84
2017-08-08T07:52:37.564Z,98036.98
2017-08-08T07:55:05.053Z,98034.28
2017-08-08T07:57:32.501Z,98026.27
2017-08-08T07:59:59.969Z,98029.00
2017-08-08T08:02:27.409Z,98026.60
2017-08-08T08:04:54.888Z,98031.25
2017-08-08T08:07:22.331Z,98025.86
2017-08-08T08:09:49.777Z,98025.56
2017-08-08T08:12:17.250Z,98026.70
2017-08-08T08:14:44.689Z,98017.70
2017-08-08T08:17:12.162Z,98020.06
2017-08-08T08:19:39.608Z,98014.91
2017-08-08T08:22:07.095Z,98012.81
2017-08-08T08:24:34.550Z,98008.80
2017-08-08T08:27:01.994Z,98000.97
2017-08-08T08:29:29.472Z,97997.34
2017-08-08T08:31:56.917Z,97998.66
2017-08-08T08:34:24.352Z,97991.45
2017-08-08T08:36:51.829Z,97989.08
2017-08-08T08:39:19.281Z,97982.59
2017-08-08T08:41:46.750Z,97977.35
2017-08-08T08:44:14.234Z,97976.64
2017-08-08T08:46:41.677Z,97973.95
2017-08-08T08:49:09.120Z,97968.16
2017-08-08T08:51:36.585Z,97969.16
2017-08-08T08:54:04.034Z,97967.09
2017-08-08T08:56:31.506Z,97962.53
2017-08-08T08:58:58.949Z,97950.00
2017-08-08T09:01:26.406Z,97950.45
2017-08-08T09:03:53.869Z,97952.38
2017-08-08T09:06:21.309Z,97957.31
2017-08-08T09:08:48.757Z,97957.07
2017-08-08T09:11:16.224Z,97960.98
2017-08-08T09:13:43.667Z,97962.56
2017-08-08T09:16:11.112Z,97962.18
2017-08-08T09:18:38.578Z,97959.14
2017-08-08T09:21:06.916Z,97962.56
2017-08-08T09:23:34.388Z,97958.94
2017-08-08T09:26:01.833Z,97955.27
2017-08-08T09:28:29.290Z,97952.92
2017-08-08T09:30:56.754Z,97949.94
2017-08-08T09:33:24.193Z,97939.59
2017-08-08T09:35:51.668Z,97935.83
2017-08-08T09:38:19.121Z,97928.44
2017-08-08T09:40:46.565Z,97920.48
2017-08-08T09:43:14.026Z,97925.33
2017-08-08T09:45:41.516Z,97919.98
2017-08-08T09:48:08.968Z,97922.24
2017-08-08T09:50:36.440Z,97916.55
2017-08-08T09:53:03.912Z,97919.08
2017-08-08T09:55:31.394Z,97913.27
2017-08-08T09:57:58.821Z,97913.36
2017-08-08T10:00:26.285Z,97909.80
2017-08-08T10:02:53.729Z,97907.00
2017-08-08T10:05:21.172Z,97902.00
2017-08-08T10:07:48.631Z,97898.31
2017-08-08T10:10:16.098Z,97900.09
2017-08-08T10:12:43.559Z,97900.78
2017-08-08T10:15:11.006Z,97901.98
2017-08-08T10:17:38.701Z,97893.33
2017-08-08T10:20:06.146Z,97887.96
2017-08-08T10:22:33.592Z,97884.89
2017-08-08T10:25:01.365Z,97885.11
2017-08-08T10:27:28.814Z,97882.31
2017-08-08T10:29:56.268Z,97872.39
2017-08-08T10:32:24.050Z,97872.77
2017-08-08T10:34:51.496Z,97868.07
2017-08-08T10:37:18.941Z,97866.80
2017-08-08T10:39:46.409Z,97864.84
2017-08-08T10:42:13.877Z,97860.53
2017-08-08T10:44:41.325Z,97865.19
2017-08-08T10:47:08.793Z,97867.84
2017-08-08T10:49:36.233Z,97858.94
2017-08-08T10:52:04.037Z,97857.58
2017-08-08T10:54:31.477Z,97854.58
2017-08-08T10:56:58.925Z,97847.19
2017-08-08T10:59:26.412Z,97840.02
2017-08-08T11:01:53.857Z,97841.69
2017-08-08T11:04:21.327Z,97841.91
2017-08-08T11:06:48.790Z,97846.30
2017-08-08T11:09:16.265Z,97849.50
2017-08-08T11:11:43.709Z,97851.75
2017-08-08T11:14:11.174Z,97853.80
2017-08-08T11:16:38.641Z,97848.66
2017-08-08T11:19:06.085Z,97852.34
2017-08-08T11:21:33.545Z,97849.85
2017-08-08T11:24:01.022Z,97836.49
2017-08-08T11:26:28.470Z,97831.07
2017-08-08T11:28:55.937Z,97820.61
2017-08-08T11:31:23.400Z,97824.55
2017-08-08T11:33:50.852Z,97828.77
2017-08-08T11:36:18.525Z,97823.13
2017-08-08T11:38:45.971Z,97814.80
2017-08-08T11:41:13.422Z,97815.33
2017-08-08T11:43:40.913Z,97814.44
2017-08-08T11:46:08.361Z,97814.16
2017-08-08T11:48:35.805Z,97809.30
2017-08-08T11:51:03.267Z,97809.30
2017-08-08T11:53:30.710Z,97819.91
2017-08-08T11:55:58.197Z,97823.72
2017-08-08T11:58:25.646Z,97814.78
2017-08-08T12:00:53.094Z,97813.13
2017-08-08T12:03:20.562Z,97808.58
2017-08-08T12:05:48.005Z,97810.32
2017-08-08T12:08:15.620Z,97804.05
2017-08-08T12:10:43.150Z,97799.20
2017-08-08T12:13:10.601Z,97795.77
2017-08-08T12:15:38.069Z,97787.89
2017-08-08T12:18:05.509Z,97781.84
2017-08-08T12:20:32.958Z,97789.31
2017-08-08T12:23:00.424Z,97784.12
2017-08-08T12:25:27.906Z,97780.45
2017-08-08T12:27:55.373Z,97792.03
2017-08-08T12:30:22.818Z,97780.88
2017-08-08T12:32:50.296Z,97777.38
2017-08-08T12:35:17.749Z,97764.39
2017-08-08T12:37:45.199Z,97749.67
2017-08-08T12:40:12.673Z,97754.55
2017-08-08T12:42:40.125Z,97754.79
2017-08-08T12:45:07.613Z,97761.27
2017-08-08T12:47:35.057Z,97764.12
2017-08-08T12:50:02.501Z,97748.92
2017-08-08T12:52:30.190Z,97748.01
2017-08-08T12:54:57.628Z,97740.64
2017-08-08T12:57:25.068Z,97734.42
2017-08-08T12:59:52.537Z,97739.65
2017-08-08T13:02:20.030Z,97739.80
2017-08-08T13:04:47.476Z,97735.95
2017-08-08T13:07:15.152Z,97750.62
2017-08-08T13:09:42.598Z,97745.09
2017-08-08T13:12:10.057Z,97744.66
2017-08-08T13:14:37.591Z,97751.25
2017-08-08T13:17:05.038Z,97751.63
2017-08-08T13:19:32.484Z,97755.89
2017-08-08T13:21:59.948Z,97759.63
2017-08-08T13:24:27.425Z,97761.04
2017-08-08T13:26:54.894Z,97766.17
2017-08-08T13:29:22.350Z,97762.10
2017-08-08T13:31:49.824Z,97760.57
2017-08-08T13:34:17.297Z,97759.55
2017-08-08T13:36:44.750Z,97763.77
2017-08-08T13:39:12.197Z,97768.06
2017-08-08T13:41:39.659Z,97765.45
2017-08-08T13:44:07.137Z,97774.09
2017-08-08T13:46:34.579Z,97769.45
2017-08-08T13:49:02.042Z,97760.42
2017-08-08T13:51:29.506Z,97758.39
2017-08-08T13:53:56.957Z,97751.25
2017-08-08T13:56:24.422Z,97755.98
2017-08-08T13:58:51.877Z,97746.84
2017-08-08T14:01:19.330Z,97749.20
2017-08-08T14:03:46.897Z,97755.98
2017-08-08T14:06:14.351Z,97753.80
2017-08-08T14:08:41.818Z,97762.94
2017-08-08T14:11:09.297Z,97753.66
2017-08-08T14:13:36.736Z,97760.42
2017-08-08T14:16:04.176Z,97754.98
2017-08-08T14:18:31.647Z,97753.92
2017-08-08T14:20:59.119Z,97759.25
2017-08-08T14:23:26.569Z,97761.81
2017-08-08T14:25:54.953Z,97763.65
2017-08-08T14:28:22.421Z,97751.98
2017-08-08T14:30:49.886Z,97753.58
2017-08-08T14:33:17.360Z,97751.50
2017-08-08T14:35:44.834Z,97755.91
2017-08-08T14:38:12.328Z,97750.05
2017-08-08T14:40:39.770Z,97751.23
2017-08-08T14:43:07.221Z,97755.77
2017-08-08T14:45:34.701Z,97741.69
2017-08-08T14:48:02.144Z,97740.19
2017-08-08T14:50:29.589Z,97740.06
2017-08-08T14:52:57.063Z,97739.11
2017-08-08T14:55:24.510Z,97739.23
2017-08-08T14:57:51.957Z,97738.68
2017-08-08T15:00:19.442Z,97725.69
2017-08-08T15:02:46.889Z,97726.04
2017-08-08T15:05:14.341Z,97727.09
2017-08-08T15:07:41.825Z,97727.13
2017-08-08T15:10:09.274Z,97726.49
2017-08-08T15:12:36.717Z,97724.48
2017-08-08T15:15:04.187Z,97728.45
2017-08-08T15:17:31.656Z,97721.46
2017-08-08T15:19:59.106Z,97715.72
2017-08-08T15:22:26.574Z,97729.41
2017-08-08T15:24:54.042Z,97727.73
2017-08-08T15:27:21.484Z,97725.97
2017-08-08T15:29:48.928Z,97725.97
2017-08-08T15:32:16.629Z,97733.37
2017-08-08T15:34:44.078Z,97724.08
2017-08-08T15:37:11.600Z,97720.52
2017-08-08T15:39:39.061Z,97722.31
2017-08-08T15:42:06.517Z,97716.78
2017-08-08T15:44:33.964Z,97721.61
2017-08-08T15:47:01.433Z,97719.77
2017-08-08T15:49:28.894Z,97714.63
2017-08-08T15:51:56.366Z,97720.32
2017-08-08T15:54:23.833Z,97717.52
2017-08-08T15:56:51.397Z,97734.91
2017-08-08T15:59:18.856Z,97730.55
2017-08-08T16:01:46.349Z,97725.97
2017-08-08T16:04:13.813Z,97724.31
2017-08-08T16:06:41.306Z,97723.48
2017-08-08T16:09:08.779Z,97720.47
2017-08-08T16:11:36.224Z,97714.94
2017-08-08T16:14:03.677Z,97716.50
2017-08-08T16:16:31.149Z,97727.48
2017-08-08T16:18:58.610Z,97713.19
2017-08-08T16:21:27.400Z,97714.59
2017-08-08T16:23:54.900Z,97720.45
2017-08-08T16:26:22.364Z,97729.10
2017-08-08T16:28:49.830Z,97718.02
2017-08-08T16:31:18.014Z,97726.38
2017-08-08T16:33:45.457Z,97723.98
2017-08-08T16:36:12.901Z,97735.38
2017-08-08T16:38:41.030Z,97735.43
2017-08-08T16:41:09.424Z,97744.09
2017-08-08T16:43:36.865Z,97749.56
2017-08-08T16:46:04.368Z,97750.94
2017-08-08T16:48:31.833Z,97766.35
2017-08-08T16:50:59.497Z,97772.81
2017-08-08T16:53:26.957Z,97774.72
2017-08-08T16:55:54.413Z,97769.51
2017-08-08T16:58:21.877Z,97767.70
2017-08-08T17:00:49.332Z,97758.13
2017-08-08T17:03:16.803Z,97758.42
2017-08-08T17:05:44.274Z,97761.78
2017-08-08T17:08:11.717Z,97753.41
2017-08-08T17:10:39.168Z,97761.87
2017-08-08T17:13:06.638Z,97768.60
2017-08-08T17:15:34.082Z,97779.88
2017-08-08T17:18:01.556Z,97784.14
2017-08-08T17:20:28.997Z,97782.93
2017-08-08T17:22:56.433Z,97782.59
2017-08-08T17:25:23.934Z,97798.08
2017-08-08T17:27:51.376Z,97804.39
2017-08-08T17:30:18.826Z,97798.10
2017-08-08T17:32:46.294Z,97801.92
2017-08-08T17:35:14.233Z,97806.05
2017-08-08T17:37:41.705Z,97800.92
2017-08-08T17:40:09.200Z,97799.67
2017-08-08T17:42:36.649Z,97799.86
2017-08-08T17:45:04.123Z,97805.37
2017-08-08T17:47:31.560Z,97808.14
2017-08-08T17:49:59.041Z,97813.22
2017-08-08T17:52:26.506Z,97819.59
2017-08-08T17:54:53.957Z,97819.59
2017-08-08T17:57:21.435Z,97824.20
2017-08-08T17:59:48.908Z,97824.13
2017-08-08T18:02:16.346Z,97824.02
2017-08-08T18:04:43.817Z,97830.05
2017-08-08T18:07:11.285Z,97834.42
2017-08-08T18:09:38.811Z,97836.80
2017-08-08T18:12:06.500Z,97839.47
2017-08-08T18:14:33.950Z,97847.89
2017-08-08T18:17:01.424Z,97846.22
2017-08-08T18:19:28.893Z,97850.21
2017-08-08T18:21:56.339Z,97861.20
2017-08-08T18:24:23.796Z,97858.09
2017-08-08T18:26:51.268Z,97860.84
2017-08-08T18:29:18.717Z,97860.25
2017-08-08T18:31:46.163Z,97854.47
2017-08-08T18:34:13.880Z,97862.33
2017-08-08T18:36:41.326Z,97861.39
2017-08-08T18:39:08.770Z,97865.74
2017-08-08T18:41:36.250Z,97875.52
2017-08-08T18:44:03.724Z,97882.52
2017-08-08T18:46:32.400Z,97891.91
2017-08-08T18:48:59.853Z,97882.73
2017-08-08T18:51:28.204Z,97888.08
2017-08-08T18:53:55.663Z,97894.95
2017-08-08T18:56:23.110Z,97896.87
2017-08-08T18:58:50.714Z,97894.17
2017-08-08T19:01:19.005Z,97886.11
2017-08-08T19:03:46.489Z,97892.39
2017-08-08T19:06:14.023Z,97907.64
2017-08-08T19:08:41.481Z,97917.52
2017-08-08T19:11:10.089Z,97915.69
2017-08-08T19:13:37.551Z,97923.40
2017-08-08T19:16:05.001Z,97931.49
2017-08-08T19:18:32.473Z,97930.94
2017-08-08T19:20:59.964Z,97926.75
2017-08-08T19:23:28.975Z,97927.95
2017-08-08T19:25:56.668Z,97933.48
2017-08-08T19:28:24.476Z,97937.46
2017-08-08T19:30:51.931Z,97927.50
2017-08-08T19:33:20.021Z,97923.41
2017-08-08T19:35:47.670Z,97925.23
2017-08-08T19:38:15.138Z,97932.36
2017-08-08T19:40:42.612Z,97938.76
2017-08-08T19:43:10.389Z,97947.74
2017-08-08T19:45:39.397Z,97949.16
2017-08-08T19:48:07.464Z,97959.66
2017-08-08T19:50:35.282Z,97963.52
2017-08-08T19:53:02.763Z,97969.22
2017-08-08T19:55:30.989Z,97966.70
2017-08-08T19:57:58.455Z,97956.86
2017-08-08T20:00:25.905Z,97956.36
2017-08-08T20:02:53.384Z,97957.62
2017-08-08T20:05:21.363Z,97948.45
2017-08-08T20:07:48.820Z,97948.49
2017-08-08T20:10:16.316Z,97954.81
2017-08-08T20:12:43.807Z,97963.53
2017-08-08T20:15:12.230Z,97979.85
2017-08-08T20:17:40.378Z,97987.70
2017-08-08T20:20:08.173Z,97987.91
2017-08-08T20:22:35.622Z,97991.81
2017-08-08T20:25:03.065Z,97997.00
2017-08-08T20:27:30.541Z,98011.89
2017-08-08T20:29:58.001Z,98020.11
2017-08-08T20:32:25.481Z,98022.59
2017-08-08T20:34:52.957Z,98026.72
2017-08-08T20:37:20.432Z,98028.05
2017-08-08T20:39:47.877Z,98033.40
2017-08-08T20:42:15.362Z,98047.03
2017-08-08T20:44:42.813Z,98053.63
2017-08-08T20:47:10.258Z,98058.66
2017-08-08T20:49:37.738Z,98054.39
2017-08-08T20:52:05.245Z,98054.36
2017-08-08T20:54:33.565Z,98052.99
2017-08-08T20:57:01.022Z,98053.33
2017-08-08T20:59:28.488Z,98038.52
2017-08-08T21:01:55.933Z,98043.05
2017-08-08T21:04:23.396Z,98040.72
2017-08-08T21:06:51.153Z,98046.45
2017-08-08T21:09:18.601Z,98052.36
2017-08-08T21:11:46.045Z,98056.19
2017-08-08T21:14:13.517Z,98072.95
2017-08-08T21:16:41.125Z,98097.98
2017-08-08T21:19:08.572Z,98113.11
2017-08-08T21:21:36.020Z,98126.56
2017-08-08T21:24:03.519Z,98146.79
2017-08-08T21:26:31.009Z,98153.70
2017-08-08T21:28:58.458Z,98167.30
2017-08-08T21:31:25.913Z,98205.88
2017-08-08T21:33:53.376Z,98251.89
2017-08-08T21:36:20.839Z,98284.25
2017-08-08T21:38:48.295Z,98330.28
2017-08-08T21:41:15.771Z,98355.65
2017-08-08T21:43:43.346Z,98454.50
2017-08-08T21:46:10.800Z,98355.06
2017-08-08T21:48:38.249Z,98360.86
2017-08-08T21:51:06.429Z,98397.97
2017-08-08T21:53:33.922Z,98402.63
2017-08-08T21:56:01.572Z,98431.22
2017-08-08T21:58:29.016Z,98458.23
2017-08-08T22:00:56.460Z,98447.27
2017-08-08T22:03:23.938Z,98491.75
2017-08-08T22:05:51.377Z,98517.89
2017-08-08T22:08:18.819Z,98465.66
2017-08-08T22:10:46.289Z,98512.98
2017-08-08T22:13:14.107Z,98498.69
2017-08-08T22:15:41.553Z,98466.99
2017-08-08T22:18:08.997Z,98493.45
2017-08-08T22:20:36.469Z,98490.42
2017-08-08T22:23:03.918Z,98477.75
2017-08-08T22:25:31.396Z,98492.73
2017-08-08T22:27:58.837Z,98475.08
2017-08-08T22:30:26.300Z,98474.84
2017-08-08T22:32:53.764Z,98473.16
2017-08-08T22:35:21.206Z,98474.84
2017-08-08T22:37:48.784Z,98485.08
2017-08-08T22:40:16.225Z,98480.27
2017-08-08T22:42:43.669Z,98465.40
2017-08-08T22:45:11.168Z,98464.62
2017-08-08T22:47:38.614Z,98464.30
2017-08-08T22:50:06.085Z,98471.87
2017-08-08T22:52:33.537Z,98461.98
2017-08-08T22:55:01.006Z,98465.19
2017-08-08T22:57:28.482Z,98463.81
2017-08-08T22:59:55.928Z,98458.50
2017-08-08T23:02:23.371Z,98470.40
2017-08-08T23:04:51.074Z,98451.34
2017-08-08T23:07:18.533Z,98448.13
2017-08-08T23:09:45.977Z,98461.48
2017-08-08T23:12:13.585Z,98455.53
2017-08-08T23:14:41.026Z,98470.38
2017-08-08T23:17:08.474Z,98475.88
2017-08-08T23:19:35.941Z,98467.96
2017-08-08T23:22:03.393Z,98462.09
2017-08-08T23:24:30.833Z,98469.25
2017-08-08T23:26:58.312Z,98474.98
2017-08-08T23:29:25.761Z,98480.95
2017-08-08T23:31:53.207Z,98485.26
2017-08-08T23:34:20.681Z,98477.16
2017-08-08T23:36:48.132Z,98472.99
2017-08-08T23:39:15.611Z,98471.40
2017-08-08T23:41:43.052Z,98474.88
2017-08-08T23:44:10.522Z,98469.63
2017-08-08T23:46:37.964Z,98474.03
2017-08-08T23:49:05.408Z,98484.67
2017-08-08T23:51:32.886Z,98466.55
2017-08-08T23:54:00.337Z,98459.71
2017-08-08T23:56:28.771Z,98458.72
2017-08-08T23:58:56.241Z,98464.72
